sensor_id;sensor_type;location;lat;lon;timestamp;pressure;altitude;pressure_sealevel;temperature;humidity
62051;BME280;48008;51.204;6.766;2023-04-01T00:58:49;98886.16;;;9.77;100.00
62051;BME280;48008;51.204;6.766;2023-04-01T01:01:21;98886.47;;;9.60;100.00
62051;BME280;48008;51.204;6.766;2023-04-01T01:03:50;98878.72;;;9.59;100.00
62051;BME280;48008;51.204;6.766;2023-04-01T01:06:29;98871.75;;;9.58;100.00
62051;BME280;48008;51.204;6.766;2023-04-01T01:12:33;98876.06;;;9.59;100.00
62051;BME280;48008;51.204;6.766;2023-04-01T01:18:19;98876.25;;;9.57;100.00
62051;BME280;48008;51.204;6.766;2023-04-01T01:21:15;98874.03;;;9.61;100.00
62051;BME280;48008;51.204;6.766;2023-04-01T01:27:04;98877.66;;;9.53;100.00
62051;BME280;48008;51.204;6.766;2023-04-01T01:32:56;98867.28;;;9.58;100.00
62051;BME280;48008;51.204;6.766;2023-04-01T01:35:30;98869.72;;;9.53;100.00
62051;BME280;48008;51.204;6.766;2023-04-01T01:38:01;98871.28;;;9.48;100.00
62051;BME280;48008;51.204;6.766;2023-04-01T01:40:31;98877.00;;;9.51;100.00
62051;BME280;48008;51.204;6.766;2023-04-01T01:43:05;98871.72;;;9.51;100.00
62051;BME280;48008;51.204;6.766;2023-04-01T01:45:35;98863.81;;;9.58;100.00
62051;BME280;48008;51.204;6.766;2023-04-01T01:48:04;98873.06;;;9.69;100.00
62051;BME280;48008;51.204;6.766;2023-04-01T01:50:33;98868.00;;;9.74;100.00
62051;BME280;48008;51.204;6.766;2023-04-01T01:53:04;98868.25;;;9.86;100.00
62051;BME280;48008;51.204;6.766;2023-04-01T01:55:35;98864.94;;;9.70;100.00
62051;BME280;48008;51.204;6.766;2023-04-01T01:58:08;98872.19;;;9.61;100.00
62051;BME280;48008;51.204;6.766;2023-04-01T02:00:38;98863.19;;;9.56;100.00
62051;BME280;48008;51.204;6.766;2023-04-01T02:03:08;98866.47;;;9.58;100.00
62051;BME280;48008;51.204;6.766;2023-04-01T02:05:35;98870.63;;;9.39;100.00
62051;BME280;48008;51.204;6.766;2023-04-01T02:08:14;98865.97;;;9.48;100.00
62051;BME280;48008;51.204;6.766;2023-04-01T02:10:51;98861.97;;;9.52;100.00
62051;BME280;48008;51.204;6.766;2023-04-01T02:13:29;98858.19;;;9.39;100.00
62051;BME280;48008;51.204;6.766;2023-04-01T02:16:00;98866.53;;;9.15;100.00
62051;BME280;48008;51.204;6.766;2023-04-01T02:18:29;98859.44;;;9.15;100.00
62051;BME280;48008;51.204;6.766;2023-04-01T02:20:58;98862.09;;;9.15;100.00
62051;BME280;48008;51.204;6.766;2023-04-01T02:23:27;98863.88;;;9.36;100.00
62051;BME280;48008;51.204;6.766;2023-04-01T02:25:54;98863.38;;;9.54;100.00
62051;BME280;48008;51.204;6.766;2023-04-01T02:28:22;98867.16;;;9.67;100.00
62051;BME280;48008;51.204;6.766;2023-04-01T02:30:50;98866.22;;;9.81;100.00
62051;BME280;48008;51.204;6.766;2023-04-01T02:33:18;98869.25;;;9.78;100.00
62051;BME280;48008;51.204;6.766;2023-04-01T02:35:46;98855.34;;;9.69;100.00
62051;BME280;48008;51.204;6.766;2023-04-01T02:38:12;98869.63;;;9.75;100.00
62051;BME280;48008;51.204;6.766;2023-04-01T02:40:46;98860.31;;;9.86;100.00
62051;BME280;48008;51.204;6.766;2023-04-01T02:43:13;98867.94;;;9.67;100.00
62051;BME280;48008;51.204;6.766;2023-04-01T02:45:40;98867.25;;;9.52;100.00
62051;BME280;48008;51.204;6.766;2023-04-01T02:48:07;98873.91;;;9.48;100.00
62051;BME280;48008;51.204;6.766;2023-04-01T02:50:34;98867.63;;;9.49;100.00
62051;BME280;48008;51.204;6.766;2023-04-01T02:53:01;98869.03;;;9.45;100.00
62051;BME280;48008;51.204;6.766;2023-04-01T02:55:30;98879.75;;;9.36;100.00
62051;BME280;48008;51.204;6.766;2023-04-01T02:57:57;98880.34;;;9.32;100.00
62051;BME280;48008;51.204;6.766;2023-04-01T03:00:24;98875.94;;;9.46;100.00
62051;BME280;48008;51.204;6.766;2023-04-01T03:02:52;98880.59;;;9.37;100.00
62051;BME280;48008;51.204;6.766;2023-04-01T03:05:20;98884.03;;;9.37;100.00
62051;BME280;48008;51.204;6.766;2023-04-01T03:07:47;98883.22;;;9.37;100.00
62051;BME280;48008;51.204;6.766;2023-04-01T03:10:14;98886.97;;;9.49;100.00
62051;BME280;48008;51.204;6.766;2023-04-01T03:12:41;98881.22;;;9.39;100.00
62051;BME280;48008;51.204;6.766;2023-04-01T03:15:10;98887.16;;;9.48;100.00
62051;BME280;48008;51.204;6.766;2023-04-01T03:17:39;98890.19;;;9.45;100.00
62051;BME280;48008;51.204;6.766;2023-04-01T03:20:06;98893.44;;;9.18;100.00
62051;BME280;48008;51.204;6.766;2023-04-01T03:22:34;98890.50;;;9.35;100.00
62051;BME280;48008;51.204;6.766;2023-04-01T03:25:03;98892.88;;;9.23;100.00
62051;BME280;48008;51.204;6.766;2023-04-01T03:27:31;98893.94;;;9.29;100.00
62051;BME280;48008;51.204;6.766;2023-04-01T03:29:58;98898.53;;;9.20;100.00
62051;BME280;48008;51.204;6.766;2023-04-01T03:32:25;98895.59;;;9.08;100.00
62051;BME280;48008;51.204;6.766;2023-04-01T03:34:53;98888.72;;;9.14;100.00
62051;BME280;48008;51.204;6.766;2023-04-01T03:37:20;98896.41;;;9.09;100.00
62051;BME280;48008;51.204;6.766;2023-04-01T03:39:46;98896.84;;;9.12;100.00
62051;BME280;48008;51.204;6.766;2023-04-01T03:42:13;98898.59;;;9.05;100.00
62051;BME280;48008;51.204;6.766;2023-04-01T03:44:41;98905.34;;;9.08;100.00
62051;BME280;48008;51.204;6.766;2023-04-01T03:47:09;98903.28;;;9.03;100.00
62051;BME280;48008;51.204;6.766;2023-04-01T03:49:36;98903.72;;;9.07;100.00
62051;BME280;48008;51.204;6.766;2023-04-01T03:52:03;98904.09;;;9.03;100.00
62051;BME280;48008;51.204;6.766;2023-04-01T03:54:29;98901.50;;;9.10;100.00
62051;BME280;48008;51.204;6.766;2023-04-01T03:56:56;98902.66;;;9.01;100.00
62051;BME280;48008;51.204;6.766;2023-04-01T03:59:24;98903.38;;;8.95;100.00
62051;BME280;48008;51.204;6.766;2023-04-01T04:01:51;98904.25;;;9.02;100.00
62051;BME280;48008;51.204;6.766;2023-04-01T04:04:17;98906.91;;;9.02;100.00
62051;BME280;48008;51.204;6.766;2023-04-01T04:06:45;98905.16;;;9.09;100.00
62051;BME280;48008;51.204;6.766;2023-04-01T04:09:12;98906.00;;;9.10;100.00
62051;BME280;48008;51.204;6.766;2023-04-01T04:11:39;98902.03;;;8.99;100.00
62051;BME280;48008;51.204;6.766;2023-04-01T04:14:05;98903.00;;;8.98;100.00
62051;BME280;48008;51.204;6.766;2023-04-01T04:16:35;98911.22;;;9.03;100.00
62051;BME280;48008;51.204;6.766;2023-04-01T04:19:03;98904.66;;;8.99;100.00
62051;BME280;48008;51.204;6.766;2023-04-01T04:21:30;98905.66;;;8.98;100.00
62051;BME280;48008;51.204;6.766;2023-04-01T04:23:59;98907.56;;;9.04;100.00
62051;BME280;48008;51.204;6.766;2023-04-01T04:26:28;98903.63;;;9.00;100.00
62051;BME280;48008;51.204;6.766;2023-04-01T04:28:58;98909.13;;;8.98;100.00
62051;BME280;48008;51.204;6.766;2023-04-01T04:31:26;98916.13;;;9.06;100.00
62051;BME280;48008;51.204;6.766;2023-04-01T04:33:55;98913.22;;;9.01;100.00
62051;BME280;48008;51.204;6.766;2023-04-01T04:36:22;98914.41;;;8.98;100.00
62051;BME280;48008;51.204;6.766;2023-04-01T04:38:50;98912.34;;;8.94;100.00
62051;BME280;48008;51.204;6.766;2023-04-01T04:41:18;98928.22;;;8.94;100.00
62051;BME280;48008;51.204;6.766;2023-04-01T04:43:51;98911.75;;;8.98;100.00
62051;BME280;48008;51.204;6.766;2023-04-01T04:46:19;98913.59;;;8.98;100.00
62051;BME280;48008;51.204;6.766;2023-04-01T04:48:49;98916.88;;;9.00;100.00
62051;BME280;48008;51.204;6.766;2023-04-01T04:51:17;98920.63;;;8.91;100.00
62051;BME280;48008;51.204;6.766;2023-04-01T04:53:45;98914.63;;;8.97;100.00
62051;BME280;48008;51.204;6.766;2023-04-01T04:56:12;98928.03;;;8.95;100.00
62051;BME280;48008;51.204;6.766;2023-04-01T04:58:46;98922.59;;;9.03;100.00
62051;BME280;48008;51.204;6.766;2023-04-01T05:01:17;98930.66;;;8.95;100.00
62051;BME280;48008;51.204;6.766;2023-04-01T05:03:44;98926.88;;;9.05;100.00
62051;BME280;48008;51.204;6.766;2023-04-01T05:06:14;98936.00;;;9.02;100.00
62051;BME280;48008;51.204;6.766;2023-04-01T05:08:43;98932.91;;;8.98;100.00
62051;BME280;48008;51.204;6.766;2023-04-01T05:11:14;98932.69;;;8.93;100.00
62051;BME280;48008;51.204;6.766;2023-04-01T05:13:43;98942.16;;;8.88;100.00
62051;BME280;48008;51.204;6.766;2023-04-01T05:16:13;98937.75;;;8.95;100.00
62051;BME280;48008;51.204;6.766;2023-04-01T05:18:41;98948.09;;;8.90;100.00
62051;BME280;48008;51.204;6.766;2023-04-01T05:21:09;98945.69;;;8.95;100.00
62051;BME280;48008;51.204;6.766;2023-04-01T05:23:37;98937.31;;;8.91;100.00
62051;BME280;48008;51.204;6.766;2023-04-01T05:26:06;98944.53;;;8.97;100.00
62051;BME280;48008;51.204;6.766;2023-04-01T05:28:33;98944.19;;;9.07;100.00
62051;BME280;48008;51.204;6.766;2023-04-01T05:31:00;98948.16;;;8.96;100.00
62051;BME280;48008;51.204;6.766;2023-04-01T05:33:33;98950.63;;;8.98;100.00
62051;BME280;48008;51.204;6.766;2023-04-01T05:36:10;98953.00;;;8.93;100.00
62051;BME280;48008;51.204;6.766;2023-04-01T05:38:37;98946.13;;;8.98;100.00
62051;BME280;48008;51.204;6.766;2023-04-01T05:41:07;98947.97;;;8.98;100.00
62051;BME280;48008;51.204;6.766;2023-04-01T05:43:38;98959.19;;;9.00;100.00
62051;BME280;48008;51.204;6.766;2023-04-01T05:46:25;98961.47;;;9.03;100.00
62051;BME280;48008;51.204;6.766;2023-04-01T05:48:58;98956.72;;;8.98;100.00
62051;BME280;48008;51.204;6.766;2023-04-01T05:51:26;98960.03;;;9.00;100.00
62051;BME280;48008;51.204;6.766;2023-04-01T05:53:53;98959.75;;;8.95;100.00
62051;BME280;48008;51.204;6.766;2023-04-01T05:56:19;98961.78;;;8.93;100.00
62051;BME280;48008;51.204;6.766;2023-04-01T05:58:51;98962.00;;;8.98;100.00
62051;BME280;48008;51.204;6.766;2023-04-01T06:01:21;98970.97;;;8.97;100.00
62051;BME280;48008;51.204;6.766;2023-04-01T06:03:48;98969.13;;;8.98;100.00
62051;BME280;48008;51.204;6.766;2023-04-01T06:06:23;98958.47;;;8.91;100.00
62051;BME280;48008;51.204;6.766;2023-04-01T06:08:52;98973.88;;;8.88;100.00
62051;BME280;48008;51.204;6.766;2023-04-01T06:11:44;98973.06;;;8.87;100.00
62051;BME280;48008;51.204;6.766;2023-04-01T06:26:35;98980.97;;;9.02;100.00
62051;BME280;48008;51.204;6.766;2023-04-01T06:29:18;98989.56;;;9.04;100.00
62051;BME280;48008;51.204;6.766;2023-04-01T06:32:09;98988.00;;;9.10;100.00
62051;BME280;48008;51.204;6.766;2023-04-01T06:35:16;98993.28;;;8.95;100.00
62051;BME280;48008;51.204;6.766;2023-04-01T06:37:56;98991.78;;;8.86;100.00
62051;BME280;48008;51.204;6.766;2023-04-01T06:43:48;98989.28;;;8.99;100.00
62051;BME280;48008;51.204;6.766;2023-04-01T06:46:54;98995.03;;;9.02;100.00
62051;BME280;48008;51.204;6.766;2023-04-01T06:50:36;99002.34;;;9.00;100.00
62051;BME280;48008;51.204;6.766;2023-04-01T06:56:37;99001.94;;;9.03;100.00
62051;BME280;48008;51.204;6.766;2023-04-01T06:59:15;99002.22;;;9.09;100.00
62051;BME280;48008;51.204;6.766;2023-04-01T07:01:49;99005.66;;;9.09;100.00
62051;BME280;48008;51.204;6.766;2023-04-01T07:04:21;99007.50;;;9.09;100.00
62051;BME280;48008;51.204;6.766;2023-04-01T07:06:58;99010.97;;;9.09;100.00
62051;BME280;48008;51.204;6.766;2023-04-01T07:09:32;99013.16;;;9.06;100.00
62051;BME280;48008;51.204;6.766;2023-04-01T07:15:17;99014.00;;;8.91;100.00
62051;BME280;48008;51.204;6.766;2023-04-01T07:17:47;99015.66;;;8.92;100.00
62051;BME280;48008;51.204;6.766;2023-04-01T07:20:24;99015.66;;;8.92;100.00
62051;BME280;48008;51.204;6.766;2023-04-01T07:22:56;99013.66;;;8.94;100.00
62051;BME280;48008;51.204;6.766;2023-04-01T07:25:33;99027.88;;;8.93;100.00
62051;BME280;48008;51.204;6.766;2023-04-01T07:28:21;99030.97;;;8.97;100.00
62051;BME280;48008;51.204;6.766;2023-04-01T07:34:15;99047.25;;;9.15;100.00
62051;BME280;48008;51.204;6.766;2023-04-01T07:36:53;99057.41;;;9.12;100.00
62051;BME280;48008;51.204;6.766;2023-04-01T07:48:58;99058.97;;;9.06;100.00
62051;BME280;48008;51.204;6.766;2023-04-01T07:51:44;99061.97;;;9.03;100.00
62051;BME280;48008;51.204;6.766;2023-04-01T08:00:02;99076.31;;;8.94;100.00
62051;BME280;48008;51.204;6.766;2023-04-01T08:03:03;99076.47;;;8.92;100.00
62051;BME280;48008;51.204;6.766;2023-04-01T08:12:20;99085.41;;;9.06;100.00
62051;BME280;48008;51.204;6.766;2023-04-01T08:15:27;99095.06;;;9.14;100.00
62051;BME280;48008;51.204;6.766;2023-04-01T08:21:01;99101.91;;;9.08;100.00
62051;BME280;48008;51.204;6.766;2023-04-01T08:23:32;99105.38;;;9.09;100.00
62051;BME280;48008;51.204;6.766;2023-04-01T08:26:53;99118.59;;;9.09;100.00
62051;BME280;48008;51.204;6.766;2023-04-01T08:29:30;99110.50;;;8.95;100.00
62051;BME280;48008;51.204;6.766;2023-04-01T08:32:10;99115.59;;;9.12;100.00
62051;BME280;48008;51.204;6.766;2023-04-01T08:34:40;99122.91;;;9.10;100.00
62051;BME280;48008;51.204;6.766;2023-04-01T08:37:21;99115.78;;;9.10;100.00
62051;BME280;48008;51.204;6.766;2023-04-01T08:39:57;99118.44;;;9.10;100.00
62051;BME280;48008;51.204;6.766;2023-04-01T08:42:49;99131.09;;;9.15;100.00
62051;BME280;48008;51.204;6.766;2023-04-01T08:45:36;99124.34;;;9.12;100.00
62051;BME280;48008;51.204;6.766;2023-04-01T08:49:10;99131.44;;;9.27;100.00
62051;BME280;48008;51.204;6.766;2023-04-01T08:51:35;99132.09;;;9.29;100.00
62051;BME280;48008;51.204;6.766;2023-04-01T09:04:13;99149.63;;;9.30;100.00
62051;BME280;48008;51.204;6.766;2023-04-01T09:10:06;99159.81;;;9.33;100.00
62051;BME280;48008;51.204;6.766;2023-04-01T09:12:45;99152.88;;;9.32;100.00
62051;BME280;48008;51.204;6.766;2023-04-01T09:15:25;99165.03;;;9.26;100.00
62051;BME280;48008;51.204;6.766;2023-04-01T09:18:28;99161.75;;;9.09;100.00
62051;BME280;48008;51.204;6.766;2023-04-01T09:27:37;99177.88;;;9.14;100.00
62051;BME280;48008;51.204;6.766;2023-04-01T09:36:04;99192.03;;;9.07;100.00
62051;BME280;48008;51.204;6.766;2023-04-01T09:41:46;99203.16;;;9.02;100.00
62051;BME280;48008;51.204;6.766;2023-04-01T09:44:34;99198.13;;;9.07;100.00
62051;BME280;48008;51.204;6.766;2023-04-01T09:47:27;99197.16;;;9.08;100.00
62051;BME280;48008;51.204;6.766;2023-04-01T09:50:29;99196.97;;;9.10;100.00
62051;BME280;48008;51.204;6.766;2023-04-01T10:14:33;99225.44;;;9.37;100.00
62051;BME280;48008;51.204;6.766;2023-04-01T10:17:32;99223.69;;;9.45;100.00
62051;BME280;48008;51.204;6.766;2023-04-01T10:23:21;99225.13;;;9.47;100.00
62051;BME280;48008;51.204;6.766;2023-04-01T10:29:47;99241.41;;;9.44;100.00
62051;BME280;48008;51.204;6.766;2023-04-01T10:36:17;99241.47;;;9.51;100.00
62051;BME280;48008;51.204;6.766;2023-04-01T10:54:21;99250.25;;;9.66;100.00
62051;BME280;48008;51.204;6.766;2023-04-01T10:57:31;99250.13;;;9.74;100.00
62051;BME280;48008;51.204;6.766;2023-04-01T11:16:14;99268.91;;;9.94;100.00
62051;BME280;48008;51.204;6.766;2023-04-01T11:22:06;99284.84;;;9.65;100.00
62051;BME280;48008;51.204;6.766;2023-04-01T11:30:33;99284.94;;;9.41;100.00
62051;BME280;48008;51.204;6.766;2023-04-01T11:33:17;99291.69;;;9.44;100.00
62051;BME280;48008;51.204;6.766;2023-04-01T11:35:57;99288.22;;;9.44;100.00
62051;BME280;48008;51.204;6.766;2023-04-01T11:45:35;99292.41;;;9.53;100.00
62051;BME280;48008;51.204;6.766;2023-04-01T11:54:07;99316.88;;;9.40;100.00
62051;BME280;48008;51.204;6.766;2023-04-01T12:00:00;99327.91;;;9.58;100.00
62051;BME280;48008;51.204;6.766;2023-04-01T12:05:52;99323.00;;;9.55;100.00
62051;BME280;48008;51.204;6.766;2023-04-01T12:08:46;99331.78;;;9.56;100.00
62051;BME280;48008;51.204;6.766;2023-04-01T12:11:29;99333.78;;;9.54;100.00
62051;BME280;48008;51.204;6.766;2023-04-01T12:14:16;99332.13;;;9.53;100.00
62051;BME280;48008;51.204;6.766;2023-04-01T12:17:10;99341.81;;;9.60;100.00
62051;BME280;48008;51.204;6.766;2023-04-01T12:19:50;99348.41;;;9.65;100.00
62051;BME280;48008;51.204;6.766;2023-04-01T12:27:45;99349.50;;;9.70;100.00
62051;BME280;48008;51.204;6.766;2023-04-01T12:48:36;99377.13;;;9.68;100.00
62051;BME280;48008;51.204;6.766;2023-04-01T12:57:14;99381.78;;;9.66;100.00
62051;BME280;48008;51.204;6.766;2023-04-01T13:02:42;99385.38;;;9.73;100.00
62051;BME280;48008;51.204;6.766;2023-04-01T13:05:53;99388.00;;;9.73;100.00
62051;BME280;48008;51.204;6.766;2023-04-01T13:11:50;99389.94;;;9.94;100.00
62051;BME280;48008;51.204;6.766;2023-04-01T13:14:37;99400.19;;;9.97;100.00
62051;BME280;48008;51.204;6.766;2023-04-01T13:17:17;99406.13;;;9.99;100.00
62051;BME280;48008;51.204;6.766;2023-04-01T13:23:04;99403.91;;;10.17;100.00
62051;BME280;48008;51.204;6.766;2023-04-01T13:25:39;99412.16;;;10.23;100.00
62051;BME280;48008;51.204;6.766;2023-04-01T13:30:59;99409.31;;;10.24;100.00
62051;BME280;48008;51.204;6.766;2023-04-01T13:33:42;99422.81;;;10.14;100.00
62051;BME280;48008;51.204;6.766;2023-04-01T13:36:19;99410.50;;;10.07;100.00
62051;BME280;48008;51.204;6.766;2023-04-01T13:41:45;99420.75;;;10.10;100.00
62051;BME280;48008;51.204;6.766;2023-04-01T13:44:22;99429.69;;;10.09;100.00
62051;BME280;48008;51.204;6.766;2023-04-01T13:52:48;99427.59;;;10.04;100.00
62051;BME280;48008;51.204;6.766;2023-04-01T13:58:35;99441.28;;;9.93;100.00
62051;BME280;48008;51.204;6.766;2023-04-01T14:01:13;99439.00;;;9.90;100.00
62051;BME280;48008;51.204;6.766;2023-04-01T14:06:51;99444.66;;;10.02;100.00
62051;BME280;48008;51.204;6.766;2023-04-01T14:09:49;99449.25;;;10.08;100.00
62051;BME280;48008;51.204;6.766;2023-04-01T14:12:40;99446.22;;;10.11;100.00
62051;BME280;48008;51.204;6.766;2023-04-01T14:15:23;99463.13;;;10.10;100.00
62051;BME280;48008;51.204;6.766;2023-04-01T14:29:27;99463.50;;;10.07;100.00
62051;BME280;48008;51.204;6.766;2023-04-01T14:34:55;99477.38;;;10.09;100.00
62051;BME280;48008;51.204;6.766;2023-04-01T14:37:48;99474.84;;;10.30;100.00
62051;BME280;48008;51.204;6.766;2023-04-01T14:40:56;99473.47;;;10.34;100.00
62051;BME280;48008;51.204;6.766;2023-04-01T14:44:04;99481.09;;;10.37;100.00
62051;BME280;48008;51.204;6.766;2023-04-01T14:46:55;99476.50;;;10.46;100.00
62051;BME280;48008;51.204;6.766;2023-04-01T14:49:41;99488.38;;;10.50;100.00
62051;BME280;48008;51.204;6.766;2023-04-01T14:52:16;99483.09;;;10.35;100.00
62051;BME280;48008;51.204;6.766;2023-04-01T14:54:50;99490.63;;;10.09;100.00
62051;BME280;48008;51.204;6.766;2023-04-01T14:57:27;99501.22;;;10.09;100.00
62051;BME280;48008;51.204;6.766;2023-04-01T15:00:16;99488.63;;;10.11;100.00
62051;BME280;48008;51.204;6.766;2023-04-01T15:05:55;99502.25;;;10.08;100.00
62051;BME280;48008;51.204;6.766;2023-04-01T15:08:29;99502.25;;;10.08;100.00
62051;BME280;48008;51.204;6.766;2023-04-01T15:14:42;99516.09;;;9.95;100.00
62051;BME280;48008;51.204;6.766;2023-04-01T15:20:38;99528.16;;;9.97;100.00
62051;BME280;48008;51.204;6.766;2023-04-01T15:23:33;99521.00;;;9.83;100.00
62051;BME280;48008;51.204;6.766;2023-04-01T15:26:26;99525.38;;;9.76;100.00
62051;BME280;48008;51.204;6.766;2023-04-01T15:32:19;99535.16;;;9.75;100.00
62051;BME280;48008;51.204;6.766;2023-04-01T15:35:14;99536.47;;;9.71;100.00
62051;BME280;48008;51.204;6.766;2023-04-01T15:37:51;99543.28;;;9.74;100.00
62051;BME280;48008;51.204;6.766;2023-04-01T15:40:44;99547.75;;;9.73;100.00
62051;BME280;48008;51.204;6.766;2023-04-01T15:43:21;99549.50;;;9.58;100.00
62051;BME280;48008;51.204;6.766;2023-04-01T15:45:58;99552.09;;;9.66;100.00
62051;BME280;48008;51.204;6.766;2023-04-01T15:48:57;99553.97;;;9.57;100.00
62051;BME280;48008;51.204;6.766;2023-04-01T15:55:27;99550.63;;;9.64;100.00
62051;BME280;48008;51.204;6.766;2023-04-01T15:58:19;99562.88;;;9.65;100.00
62051;BME280;48008;51.204;6.766;2023-04-01T16:00:33;99573.88;;;9.53;100.00
62051;BME280;48008;51.204;6.766;2023-04-01T16:03:52;99572.38;;;9.51;100.00
62051;BME280;48008;51.204;6.766;2023-04-01T16:06:45;99571.91;;;9.47;100.00
62051;BME280;48008;51.204;6.766;2023-04-01T16:09:22;99564.91;;;9.54;100.00
62051;BME280;48008;51.204;6.766;2023-04-01T16:12:01;99581.69;;;9.47;100.00
62051;BME280;48008;51.204;6.766;2023-04-01T16:14:44;99566.63;;;9.47;100.00
62051;BME280;48008;51.204;6.766;2023-04-01T16:17:51;99572.56;;;9.49;100.00
62051;BME280;48008;51.204;6.766;2023-04-01T16:20:20;99584.81;;;9.50;100.00
62051;BME280;48008;51.204;6.766;2023-04-01T16:23:11;99585.94;;;9.56;100.00
62051;BME280;48008;51.204;6.766;2023-04-01T16:34:36;99598.34;;;9.55;100.00
62051;BME280;48008;51.204;6.766;2023-04-01T16:37:20;99609.63;;;9.49;100.00
62051;BME280;48008;51.204;6.766;2023-04-01T16:42:54;99614.84;;;9.34;100.00
62051;BME280;48008;51.204;6.766;2023-04-01T16:48:12;99629.72;;;9.35;100.00
62051;BME280;48008;51.204;6.766;2023-04-01T16:50:58;99614.97;;;9.41;100.00
62051;BME280;48008;51.204;6.766;2023-04-01T16:53:45;99622.47;;;9.29;100.00
62051;BME280;48008;51.204;6.766;2023-04-01T16:56:23;99627.75;;;9.29;100.00
62051;BME280;48008;51.204;6.766;2023-04-01T17:01:54;99632.78;;;9.24;100.00
62051;BME280;48008;51.204;6.766;2023-04-01T17:13:25;99648.13;;;9.29;100.00
62051;BME280;48008;51.204;6.766;2023-04-01T17:27:50;99667.50;;;9.13;100.00
62051;BME280;48008;51.204;6.766;2023-04-01T17:33:31;99673.88;;;9.35;100.00
62051;BME280;48008;51.204;6.766;2023-04-01T17:36:21;99681.53;;;9.30;100.00
62051;BME280;48008;51.204;6.766;2023-04-01T17:39:01;99681.06;;;9.26;100.00
62051;BME280;48008;51.204;6.766;2023-04-01T17:41:52;99687.38;;;9.17;100.00
62051;BME280;48008;51.204;6.766;2023-04-01T17:50:28;99699.75;;;9.16;100.00
62051;BME280;48008;51.204;6.766;2023-04-01T17:56:02;99708.34;;;9.27;100.00
62051;BME280;48008;51.204;6.766;2023-04-01T17:59:13;99718.28;;;9.16;100.00
62051;BME280;48008;51.204;6.766;2023-04-01T18:01:48;99721.78;;;9.09;100.00
62051;BME280;48008;51.204;6.766;2023-04-01T18:04:30;99733.50;;;9.14;100.00
62051;BME280;48008;51.204;6.766;2023-04-01T18:07:20;99730.88;;;9.06;100.00
62051;BME280;48008;51.204;6.766;2023-04-01T18:10:17;99729.53;;;9.10;100.00
62051;BME280;48008;51.204;6.766;2023-04-01T18:13:11;99736.66;;;9.01;100.00
62051;BME280;48008;51.204;6.766;2023-04-01T18:16:19;99744.78;;;9.00;100.00
62051;BME280;48008;51.204;6.766;2023-04-01T18:19:01;99743.13;;;8.99;100.00
62051;BME280;48008;51.204;6.766;2023-04-01T18:21:50;99746.91;;;8.96;100.00
62051;BME280;48008;51.204;6.766;2023-04-01T18:24:29;99755.69;;;9.05;100.00
62051;BME280;48008;51.204;6.766;2023-04-01T18:27:29;99753.34;;;9.02;100.00
62051;BME280;48008;51.204;6.766;2023-04-01T18:30:07;99768.09;;;8.88;100.00
62051;BME280;48008;51.204;6.766;2023-04-01T18:32:46;99765.78;;;8.85;100.00
62051;BME280;48008;51.204;6.766;2023-04-01T18:35:51;99770.59;;;8.81;100.00
62051;BME280;48008;51.204;6.766;2023-04-01T18:38:37;99780.19;;;8.82;100.00
62051;BME280;48008;51.204;6.766;2023-04-01T18:41:19;99788.09;;;8.91;100.00
62051;BME280;48008;51.204;6.766;2023-04-01T18:44:04;99781.16;;;8.81;100.00
62051;BME280;48008;51.204;6.766;2023-04-01T18:53:08;99803.50;;;8.79;100.00
62051;BME280;48008;51.204;6.766;2023-04-01T18:55:42;99807.09;;;8.78;100.00
62051;BME280;48008;51.204;6.766;2023-04-01T18:59:06;99811.56;;;8.86;100.00
62051;BME280;48008;51.204;6.766;2023-04-01T19:01:26;99808.94;;;8.77;100.00
62051;BME280;48008;51.204;6.766;2023-04-01T19:04:20;99816.38;;;8.90;100.00
62051;BME280;48008;51.204;6.766;2023-04-01T19:06:53;99817.84;;;8.93;100.00
62051;BME280;48008;51.204;6.766;2023-04-01T19:09:44;99819.84;;;8.99;100.00
62051;BME280;48008;51.204;6.766;2023-04-01T19:12:26;99820.81;;;8.98;100.00
62051;BME280;48008;51.204;6.766;2023-04-01T19:21:07;99832.72;;;9.02;100.00
62051;BME280;48008;51.204;6.766;2023-04-01T19:27:15;99838.34;;;8.91;100.00
62051;BME280;48008;51.204;6.766;2023-04-01T19:30:26;99836.88;;;8.88;100.00
62051;BME280;48008;51.204;6.766;2023-04-01T19:38:43;99841.00;;;8.91;100.00
62051;BME280;48008;51.204;6.766;2023-04-01T19:41:46;99839.19;;;8.83;100.00
62051;BME280;48008;51.204;6.766;2023-04-01T19:47:39;99857.38;;;8.70;100.00
62051;BME280;48008;51.204;6.766;2023-04-01T19:50:34;99848.94;;;8.66;100.00
62051;BME280;48008;51.204;6.766;2023-04-01T19:56:06;99853.88;;;8.61;100.00
62051;BME280;48008;51.204;6.766;2023-04-01T19:59:02;99858.34;;;8.69;100.00
62051;BME280;48008;51.204;6.766;2023-04-01T20:01:56;99862.47;;;8.63;100.00
62051;BME280;48008;51.204;6.766;2023-04-01T20:07:23;99866.59;;;8.82;100.00
62051;BME280;48008;51.204;6.766;2023-04-01T20:10:14;99873.03;;;8.71;100.00
62051;BME280;48008;51.204;6.766;2023-04-01T20:13:06;99872.72;;;8.74;100.00
62051;BME280;48008;51.204;6.766;2023-04-01T20:15:44;99871.09;;;8.73;100.00
62051;BME280;48008;51.204;6.766;2023-04-01T20:18:23;99873.38;;;8.76;100.00
62051;BME280;48008;51.204;6.766;2023-04-01T20:20:57;99879.34;;;8.70;100.00
62051;BME280;48008;51.204;6.766;2023-04-01T20:23:54;99881.34;;;8.84;100.00
62051;BME280;48008;51.204;6.766;2023-04-01T20:26:28;99880.34;;;8.86;100.00
62051;BME280;48008;51.204;6.766;2023-04-01T20:35:20;99886.25;;;8.71;100.00
62051;BME280;48008;51.204;6.766;2023-04-01T20:40:47;99901.28;;;8.54;100.00
62051;BME280;48008;51.204;6.766;2023-04-01T20:49:54;99911.25;;;8.77;100.00
62051;BME280;48008;51.204;6.766;2023-04-01T20:52:32;99910.75;;;8.81;100.00
62051;BME280;48008;51.204;6.766;2023-04-01T21:03:49;99932.75;;;8.90;100.00
62051;BME280;48008;51.204;6.766;2023-04-01T21:10:00;99944.34;;;8.97;100.00
62051;BME280;48008;51.204;6.766;2023-04-01T21:13:00;99949.47;;;9.07;100.00
62051;BME280;48008;51.204;6.766;2023-04-01T21:16:11;99958.72;;;9.03;100.00
62051;BME280;48008;51.204;6.766;2023-04-01T21:18:49;99952.63;;;9.02;100.00